sensor_id;sensor_type;location;lat;lon;timestamp;pressure;altitude;pressure_sealevel;temperature;humidity
74218;BME280;62579;47.288;18.646;2024-02-15T00:02:06;100604.25;;;4.98;100.00
74218;BME280;62579;47.288;18.646;2024-02-15T00:04:31;100600.75;;;5.10;100.00
74218;BME280;62579;47.288;18.646;2024-02-15T00:06:58;100606.47;;;5.12;100.00
74218;BME280;62579;47.288;18.646;2024-02-15T00:09:25;100612.34;;;5.20;100.00
74218;BME280;62579;47.288;18.646;2024-02-15T00:11:51;100614.38;;;5.28;100.00
74218;BME280;62579;47.288;18.646;2024-02-15T00:14:16;100616.94;;;5.32;100.00
74218;BME280;62579;47.288;18.646;2024-02-15T00:16:42;100610.97;;;5.37;100.00
74218;BME280;62579;47.288;18.646;2024-02-15T00:19:07;100613.09;;;5.42;100.00
74218;BME280;62579;47.288;18.646;2024-02-15T00:21:33;100610.69;;;5.44;100.00
74218;BME280;62579;47.288;18.646;2024-02-15T00:23:58;100616.41;;;5.46;100.00
74218;BME280;62579;47.288;18.646;2024-02-15T00:26:25;100619.28;;;5.52;100.00
74218;BME280;62579;47.288;18.646;2024-02-15T00:28:51;100614.91;;;5.45;100.00
74218;BME280;62579;47.288;18.646;2024-02-15T00:31:17;100611.75;;;5.46;100.00
74218;BME280;62579;47.288;18.646;2024-02-15T00:33:43;100611.44;;;5.44;100.00
74218;BME280;62579;47.288;18.646;2024-02-15T00:36:09;100612.63;;;5.43;100.00
74218;BME280;62579;47.288;18.646;2024-02-15T00:38:35;100615.34;;;5.43;100.00
74218;BME280;62579;47.288;18.646;2024-02-15T00:41:00;100611.56;;;5.41;100.00
74218;BME280;62579;47.288;18.646;2024-02-15T00:43:29;100606.81;;;5.45;100.00
74218;BME280;62579;47.288;18.646;2024-02-15T00:45:54;100607.69;;;5.42;100.00
74218;BME280;62579;47.288;18.646;2024-02-15T00:48:20;100604.50;;;5.34;100.00
74218;BME280;62579;47.288;18.646;2024-02-15T00:50:45;100601.84;;;5.43;100.00
74218;BME280;62579;47.288;18.646;2024-02-15T00:53:10;100603.53;;;5.50;100.00
74218;BME280;62579;47.288;18.646;2024-02-15T00:55:36;100600.06;;;5.50;100.00
74218;BME280;62579;47.288;18.646;2024-02-15T00:58:01;100605.06;;;5.60;100.00
74218;BME280;62579;47.288;18.646;2024-02-15T01:00:27;100607.16;;;5.56;100.00
74218;BME280;62579;47.288;18.646;2024-02-15T01:02:55;100606.59;;;5.61;100.00
74218;BME280;62579;47.288;18.646;2024-02-15T01:05:20;100610.41;;;5.73;100.00
74218;BME280;62579;47.288;18.646;2024-02-15T01:07:47;100606.94;;;5.72;100.00
74218;BME280;62579;47.288;18.646;2024-02-15T01:10:14;100610.66;;;5.66;100.00
74218;BME280;62579;47.288;18.646;2024-02-15T01:12:39;100608.53;;;5.61;100.00
74218;BME280;62579;47.288;18.646;2024-02-15T01:15:05;100612.00;;;5.61;100.00
74218;BME280;62579;47.288;18.646;2024-02-15T01:17:31;100608.06;;;5.62;100.00
74218;BME280;62579;47.288;18.646;2024-02-15T01:19:56;100613.06;;;5.64;100.00
74218;BME280;62579;47.288;18.646;2024-02-15T01:22:22;100613.22;;;5.69;100.00
74218;BME280;62579;47.288;18.646;2024-02-15T01:24:50;100611.13;;;5.73;100.00
74218;BME280;62579;47.288;18.646;2024-02-15T01:27:15;100611.47;;;5.75;100.00
74218;BME280;62579;47.288;18.646;2024-02-15T01:29:42;100611.31;;;5.79;100.00
74218;BME280;62579;47.288;18.646;2024-02-15T01:32:07;100607.53;;;5.76;100.00
74218;BME280;62579;47.288;18.646;2024-02-15T01:34:33;100605.47;;;5.80;100.00
74218;BME280;62579;47.288;18.646;2024-02-15T01:36:58;100604.41;;;5.78;100.00
74218;BME280;62579;47.288;18.646;2024-02-15T01:39:24;100604.84;;;5.76;100.00
74218;BME280;62579;47.288;18.646;2024-02-15T01:41:49;100600.06;;;5.80;100.00
74218;BME280;62579;47.288;18.646;2024-02-15T01:44:21;100601.47;;;5.85;100.00
74218;BME280;62579;47.288;18.646;2024-02-15T01:46:47;100593.78;;;5.83;100.00
74218;BME280;62579;47.288;18.646;2024-02-15T01:49:13;100598.75;;;5.85;100.00
74218;BME280;62579;47.288;18.646;2024-02-15T01:51:41;100597.13;;;5.87;100.00
74218;BME280;62579;47.288;18.646;2024-02-15T01:54:10;100598.16;;;5.90;100.00
74218;BME280;62579;47.288;18.646;2024-02-15T01:56:35;100609.91;;;5.96;100.00
74218;BME280;62579;47.288;18.646;2024-02-15T01:59:02;100604.94;;;5.94;100.00
74218;BME280;62579;47.288;18.646;2024-02-15T02:01:30;100603.16;;;5.91;100.00
74218;BME280;62579;47.288;18.646;2024-02-15T02:04:00;100597.00;;;5.91;100.00
74218;BME280;62579;47.288;18.646;2024-02-15T02:06:25;100592.94;;;5.95;100.00
74218;BME280;62579;47.288;18.646;2024-02-15T02:08:51;100600.28;;;5.95;100.00
74218;BME280;62579;47.288;18.646;2024-02-15T02:11:16;100591.00;;;5.96;100.00
74218;BME280;62579;47.288;18.646;2024-02-15T02:13:42;100585.87;;;5.98;100.00
74218;BME280;62579;47.288;18.646;2024-02-15T02:16:30;100592.06;;;5.98;100.00
74218;BME280;62579;47.288;18.646;2024-02-15T02:18:58;100581.69;;;5.97;100.00
74218;BME280;62579;47.288;18.646;2024-02-15T02:21:25;100590.53;;;5.97;100.00
74218;BME280;62579;47.288;18.646;2024-02-15T02:23:53;100579.72;;;5.97;100.00
74218;BME280;62579;47.288;18.646;2024-02-15T02:26:21;100578.84;;;6.00;100.00
74218;BME280;62579;47.288;18.646;2024-02-15T02:28:47;100575.09;;;5.98;100.00
74218;BME280;62579;47.288;18.646;2024-02-15T02:31:13;100570.56;;;5.95;100.00
74218;BME280;62579;47.288;18.646;2024-02-15T02:33:39;100572.81;;;5.87;100.00
74218;BME280;62579;47.288;18.646;2024-02-15T02:36:06;100576.56;;;5.90;100.00
74218;BME280;62579;47.288;18.646;2024-02-15T02:38:35;100579.41;;;5.86;100.00
74218;BME280;62579;47.288;18.646;2024-02-15T02:41:02;100579.06;;;5.84;100.00
74218;BME280;62579;47.288;18.646;2024-02-15T02:43:28;100575.44;;;5.78;100.00
74218;BME280;62579;47.288;18.646;2024-02-15T02:45:53;100572.44;;;5.76;100.00
74218;BME280;62579;47.288;18.646;2024-02-15T02:48:18;100568.97;;;5.76;100.00
74218;BME280;62579;47.288;18.646;2024-02-15T02:50:44;100575.13;;;5.76;100.00
74218;BME280;62579;47.288;18.646;2024-02-15T02:53:09;100568.69;;;5.74;100.00
74218;BME280;62579;47.288;18.646;2024-02-15T02:55:36;100570.31;;;5.71;100.00
74218;BME280;62579;47.288;18.646;2024-02-15T02:58:01;100575.84;;;5.68;100.00
74218;BME280;62579;47.288;18.646;2024-02-15T03:00:28;100580.34;;;5.62;100.00
74218;BME280;62579;47.288;18.646;2024-02-15T03:02:53;100582.00;;;5.59;100.00
74218;BME280;62579;47.288;18.646;2024-02-15T03:05:21;100584.22;;;5.61;100.00
74218;BME280;62579;47.288;18.646;2024-02-15T03:07:47;100579.13;;;5.63;100.00
74218;BME280;62579;47.288;18.646;2024-02-15T03:10:12;100584.69;;;5.59;100.00
74218;BME280;62579;47.288;18.646;2024-02-15T03:12:39;100582.16;;;5.65;100.00
74218;BME280;62579;47.288;18.646;2024-02-15T03:15:05;100594.28;;;5.60;100.00
74218;BME280;62579;47.288;18.646;2024-02-15T03:17:37;100586.19;;;5.60;100.00
74218;BME280;62579;47.288;18.646;2024-02-15T03:20:05;100596.78;;;5.55;100.00
74218;BME280;62579;47.288;18.646;2024-02-15T03:22:36;100600.88;;;5.59;100.00
74218;BME280;62579;47.288;18.646;2024-02-15T03:25:06;100607.78;;;5.60;100.00
74218;BME280;62579;47.288;18.646;2024-02-15T03:27:33;100599.66;;;5.51;100.00
74218;BME280;62579;47.288;18.646;2024-02-15T03:30:00;100597.25;;;5.53;100.00
74218;BME280;62579;47.288;18.646;2024-02-15T03:32:26;100591.72;;;5.57;100.00
74218;BME280;62579;47.288;18.646;2024-02-15T03:34:51;100598.19;;;5.59;100.00
74218;BME280;62579;47.288;18.646;2024-02-15T03:37:16;100605.06;;;5.60;100.00
74218;BME280;62579;47.288;18.646;2024-02-15T03:39:43;100604.13;;;5.54;100.00
74218;BME280;62579;47.288;18.646;2024-02-15T03:42:08;100598.19;;;5.59;100.00
74218;BME280;62579;47.288;18.646;2024-02-15T03:44:35;100604.78;;;5.58;100.00
74218;BME280;62579;47.288;18.646;2024-02-15T03:47:00;100607.75;;;5.51;100.00
74218;BME280;62579;47.288;18.646;2024-02-15T03:49:25;100600.19;;;5.46;100.00
74218;BME280;62579;47.288;18.646;2024-02-15T03:51:51;100605.94;;;5.48;100.00
74218;BME280;62579;47.288;18.646;2024-02-15T03:54:17;100601.84;;;5.43;100.00
74218;BME280;62579;47.288;18.646;2024-02-15T03:56:49;100586.84;;;5.42;100.00
74218;BME280;62579;47.288;18.646;2024-02-15T03:59:19;100587.78;;;5.49;100.00
74218;BME280;62579;47.288;18.646;2024-02-15T04:01:50;100584.19;;;5.52;100.00
74218;BME280;62579;47.288;18.646;2024-02-15T04:04:16;100598.00;;;5.54;100.00
74218;BME280;62579;47.288;18.646;2024-02-15T04:06:41;100586.00;;;5.55;100.00
74218;BME280;62579;47.288;18.646;2024-02-15T04:09:08;100588.56;;;5.58;100.00
74218;BME280;62579;47.288;18.646;2024-02-15T04:11:35;100592.78;;;5.59;100.00
74218;BME280;62579;47.288;18.646;2024-02-15T04:14:03;100587.09;;;5.66;100.00
74218;BME280;62579;47.288;18.646;2024-02-15T04:16:28;100591.75;;;5.66;100.00
74218;BME280;62579;47.288;18.646;2024-02-15T04:18:55;100591.00;;;5.65;100.00
74218;BME280;62579;47.288;18.646;2024-02-15T04:21:22;100592.06;;;5.68;100.00
74218;BME280;62579;47.288;18.646;2024-02-15T04:23:48;100592.81;;;5.68;100.00
74218;BME280;62579;47.288;18.646;2024-02-15T04:26:13;100583.41;;;5.73;100.00
74218;BME280;62579;47.288;18.646;2024-02-15T04:28:40;100589.53;;;5.73;100.00
74218;BME280;62579;47.288;18.646;2024-02-15T04:31:06;100594.03;;;5.67;100.00
74218;BME280;62579;47.288;18.646;2024-02-15T04:33:34;100594.62;;;5.71;100.00
74218;BME280;62579;47.288;18.646;2024-02-15T04:35:59;100590.09;;;5.68;100.00
74218;BME280;62579;47.288;18.646;2024-02-15T04:38:27;100596.56;;;5.71;100.00
74218;BME280;62579;47.288;18.646;2024-02-15T04:40:53;100588.16;;;5.69;100.00
74218;BME280;62579;47.288;18.646;2024-02-15T04:43:19;100598.38;;;5.65;100.00
74218;BME280;62579;47.288;18.646;2024-02-15T04:45:44;100594.19;;;5.73;100.00
74218;BME280;62579;47.288;18.646;2024-02-15T04:48:11;100583.53;;;5.78;100.00
74218;BME280;62579;47.288;18.646;2024-02-15T04:50:38;100588.34;;;5.74;100.00
74218;BME280;62579;47.288;18.646;2024-02-15T04:53:08;100590.19;;;5.86;100.00
74218;BME280;62579;47.288;18.646;2024-02-15T04:55:34;100594.34;;;5.78;100.00
74218;BME280;62579;47.288;18.646;2024-02-15T04:58:00;100589.53;;;5.73;100.00
74218;BME280;62579;47.288;18.646;2024-02-15T05:00:26;100597.31;;;5.71;100.00
74218;BME280;62579;47.288;18.646;2024-02-15T05:02:51;100585.94;;;5.76;100.00
74218;BME280;62579;47.288;18.646;2024-02-15T05:05:17;100595.09;;;5.70;100.00
74218;BME280;62579;47.288;18.646;2024-02-15T05:07:43;100581.59;;;5.70;100.00
74218;BME280;62579;47.288;18.646;2024-02-15T05:10:09;100587.28;;;5.72;100.00
74218;BME280;62579;47.288;18.646;2024-02-15T05:12:35;100591.22;;;5.80;100.00
74218;BME280;62579;47.288;18.646;2024-02-15T05:15:00;100582.19;;;5.74;100.00
74218;BME280;62579;47.288;18.646;2024-02-15T05:17:26;100582.06;;;5.77;100.00
74218;BME280;62579;47.288;18.646;2024-02-15T05:19:55;100594.03;;;5.76;100.00
74218;BME280;62579;47.288;18.646;2024-02-15T05:22:25;100593.28;;;5.76;100.00
74218;BME280;62579;47.288;18.646;2024-02-15T05:24:52;100592.84;;;5.77;100.00
74218;BME280;62579;47.288;18.646;2024-02-15T05:27:19;100591.50;;;5.82;100.00
74218;BME280;62579;47.288;18.646;2024-02-15T05:29:45;100590.03;;;5.81;100.00
74218;BME280;62579;47.288;18.646;2024-02-15T05:32:10;100587.59;;;5.74;100.00
74218;BME280;62579;47.288;18.646;2024-02-15T05:34:36;100598.75;;;5.85;100.00
74218;BME280;62579;47.288;18.646;2024-02-15T05:37:05;100592.91;;;5.86;100.00
74218;BME280;62579;47.288;18.646;2024-02-15T05:39:32;100592.91;;;5.86;100.00
74218;BME280;62579;47.288;18.646;2024-02-15T05:41:57;100600.06;;;5.80;100.00
74218;BME280;62579;47.288;18.646;2024-02-15T05:44:26;100594.59;;;5.93;100.00
74218;BME280;62579;47.288;18.646;2024-02-15T05:46:51;100599.69;;;5.91;100.00
74218;BME280;62579;47.288;18.646;2024-02-15T05:49:17;100599.69;;;5.91;100.00
74218;BME280;62579;47.288;18.646;2024-02-15T05:51:43;100601.50;;;5.94;100.00
74218;BME280;62579;47.288;18.646;2024-02-15T05:54:10;100602.69;;;5.93;100.00
74218;BME280;62579;47.288;18.646;2024-02-15T05:56:36;100609.44;;;5.97;100.00
74218;BME280;62579;47.288;18.646;2024-02-15T05:59:01;100613.66;;;5.98;100.00
74218;BME280;62579;47.288;18.646;2024-02-15T06:01:35;100607.97;;;6.05;100.00
74218;BME280;62579;47.288;18.646;2024-02-15T06:04:00;100608.12;;;6.02;100.00
74218;BME280;62579;47.288;18.646;2024-02-15T06:06:25;100613.84;;;6.04;100.00
74218;BME280;62579;47.288;18.646;2024-02-15T06:08:51;100616.97;;;6.02;100.00
74218;BME280;62579;47.288;18.646;2024-02-15T06:11:20;100620.75;;;6.05;100.00
74218;BME280;62579;47.288;18.646;2024-02-15T06:13:46;100619.66;;;6.02;100.00
74218;BME280;62579;47.288;18.646;2024-02-15T06:16:11;100626.00;;;6.09;100.00
74218;BME280;62579;47.288;18.646;2024-02-15T06:18:37;100626.00;;;6.09;100.00
74218;BME280;62579;47.288;18.646;2024-02-15T06:21:03;100618.66;;;6.09;100.00
74218;BME280;62579;47.288;18.646;2024-02-15T06:23:28;100625.28;;;6.17;100.00
74218;BME280;62579;47.288;18.646;2024-02-15T06:25:56;100623.19;;;6.21;100.00
74218;BME280;62579;47.288;18.646;2024-02-15T06:28:23;100628.59;;;6.21;100.00
74218;BME280;62579;47.288;18.646;2024-02-15T06:31:09;100628.75;;;6.27;100.00
74218;BME280;62579;47.288;18.646;2024-02-15T06:33:53;100631.78;;;6.29;100.00
74218;BME280;62579;47.288;18.646;2024-02-15T06:39:30;100635.31;;;6.17;100.00
74218;BME280;62579;47.288;18.646;2024-02-15T06:42:12;100637.59;;;6.27;100.00
74218;BME280;62579;47.288;18.646;2024-02-15T06:44:40;100632.38;;;6.33;100.00
74218;BME280;62579;47.288;18.646;2024-02-15T06:47:06;100636.44;;;6.37;100.00
74218;BME280;62579;47.288;18.646;2024-02-15T06:49:32;100639.44;;;6.39;100.00
74218;BME280;62579;47.288;18.646;2024-02-15T06:51:58;100643.06;;;6.45;100.00
74218;BME280;62579;47.288;18.646;2024-02-15T06:54:24;100642.47;;;6.50;100.00
74218;BME280;62579;47.288;18.646;2024-02-15T06:56:50;100652.69;;;6.55;100.00
74218;BME280;62579;47.288;18.646;2024-02-15T06:59:17;100649.81;;;6.59;100.00
74218;BME280;62579;47.288;18.646;2024-02-15T07:01:44;100657.94;;;6.50;100.00
74218;BME280;62579;47.288;18.646;2024-02-15T07:04:09;100658.50;;;6.36;100.00
74218;BME280;62579;47.288;18.646;2024-02-15T07:06:38;100664.06;;;6.41;100.00
74218;BME280;62579;47.288;18.646;2024-02-15T07:09:07;100655.03;;;6.26;100.00
74218;BME280;62579;47.288;18.646;2024-02-15T07:11:33;100656.09;;;6.29;100.00
74218;BME280;62579;47.288;18.646;2024-02-15T07:14:01;100665.44;;;6.37;100.00
74218;BME280;62579;47.288;18.646;2024-02-15T07:16:27;100669.03;;;6.43;100.00
74218;BME280;62579;47.288;18.646;2024-02-15T07:18:52;100669.34;;;6.45;100.00
74218;BME280;62579;47.288;18.646;2024-02-15T07:21:19;100653.41;;;6.29;100.00
74218;BME280;62579;47.288;18.646;2024-02-15T07:23:48;100656.84;;;6.29;100.00
74218;BME280;62579;47.288;18.646;2024-02-15T07:26:13;100661.06;;;6.48;100.00
74218;BME280;62579;47.288;18.646;2024-02-15T07:28:40;100662.88;;;6.51;100.00
74218;BME280;62579;47.288;18.646;2024-02-15T07:31:06;100658.69;;;6.59;100.00
74218;BME280;62579;47.288;18.646;2024-02-15T07:33:32;100658.25;;;6.61;100.00
74218;BME280;62579;47.288;18.646;2024-02-15T07:35:57;100669.06;;;6.70;100.00
74218;BME280;62579;47.288;18.646;2024-02-15T07:38:22;100663.38;;;6.77;100.00
74218;BME280;62579;47.288;18.646;2024-02-15T07:40:49;100667.72;;;6.65;100.00
74218;BME280;62579;47.288;18.646;2024-02-15T07:43:15;100672.53;;;6.71;100.00
74218;BME280;62579;47.288;18.646;2024-02-15T07:45:41;100672.72;;;6.85;100.00
74218;BME280;62579;47.288;18.646;2024-02-15T07:48:07;100670.00;;;6.94;100.00
74218;BME280;62579;47.288;18.646;2024-02-15T07:50:32;100675.13;;;6.92;100.00
74218;BME280;62579;47.288;18.646;2024-02-15T07:52:58;100682.03;;;6.93;100.00
74218;BME280;62579;47.288;18.646;2024-02-15T07:55:23;100686.09;;;6.98;100.00
74218;BME280;62579;47.288;18.646;2024-02-15T07:57:53;100676.94;;;7.04;100.00
74218;BME280;62579;47.288;18.646;2024-02-15T08:00:19;100681.75;;;7.09;100.00
74218;BME280;62579;47.288;18.646;2024-02-15T08:02:45;100676.47;;;7.15;100.00
74218;BME280;62579;47.288;18.646;2024-02-15T08:05:11;100682.19;;;7.17;100.00
74218;BME280;62579;47.288;18.646;2024-02-15T08:07:46;100680.22;;;7.17;100.00
74218;BME280;62579;47.288;18.646;2024-02-15T08:10:12;100665.34;;;7.22;100.00
74218;BME280;62579;47.288;18.646;2024-02-15T08:12:42;100673.78;;;7.15;100.00
74218;BME280;62579;47.288;18.646;2024-02-15T08:15:11;100674.03;;;7.35;100.00
74218;BME280;62579;47.288;18.646;2024-02-15T08:17:44;100672.84;;;7.27;100.00
74218;BME280;62579;47.288;18.646;2024-02-15T08:20:14;100670.75;;;7.31;100.00
74218;BME280;62579;47.288;18.646;2024-02-15T08:22:40;100672.09;;;7.26;100.00
74218;BME280;62579;47.288;18.646;2024-02-15T08:25:12;100677.50;;;7.26;100.00
74218;BME280;62579;47.288;18.646;2024-02-15T08:30:08;100672.09;;;7.45;100.00
74218;BME280;62579;47.288;18.646;2024-02-15T08:32:34;100683.16;;;7.56;100.00
74218;BME280;62579;47.288;18.646;2024-02-15T08:35:00;100665.09;;;7.71;100.00
74218;BME280;62579;47.288;18.646;2024-02-15T08:37:25;100663.28;;;7.68;100.00
74218;BME280;62579;47.288;18.646;2024-02-15T08:39:51;100674.87;;;7.68;100.00
74218;BME280;62579;47.288;18.646;2024-02-15T08:42:17;100677.25;;;7.84;100.00
74218;BME280;62579;47.288;18.646;2024-02-15T08:44:50;100677.37;;;7.90;100.00
74218;BME280;62579;47.288;18.646;2024-02-15T08:47:15;100678.72;;;7.95;100.00
74218;BME280;62579;47.288;18.646;2024-02-15T08:49:40;100683.09;;;7.92;100.00
74218;BME280;62579;47.288;18.646;2024-02-15T08:52:06;100677.59;;;8.10;100.00
74218;BME280;62579;47.288;18.646;2024-02-15T08:54:35;100675.78;;;8.07;100.00
74218;BME280;62579;47.288;18.646;2024-02-15T08:57:00;100671.09;;;8.17;99.59
74218;BME280;62579;47.288;18.646;2024-02-15T08:59:27;100674.56;;;8.17;96.38
74218;BME280;62579;47.288;18.646;2024-02-15T09:01:55;100679.09;;;8.11;95.90
74218;BME280;62579;47.288;18.646;2024-02-15T09:04:22;100687.16;;;8.20;97.01
74218;BME280;62579;47.288;18.646;2024-02-15T09:06:50;100679.78;;;8.21;99.56
74218;BME280;62579;47.288;18.646;2024-02-15T09:09:16;100686.53;;;8.34;100.00
74218;BME280;62579;47.288;18.646;2024-02-15T09:11:41;100679.84;;;8.44;100.00
74218;BME280;62579;47.288;18.646;2024-02-15T09:14:06;100682.88;;;8.47;100.00
74218;BME280;62579;47.288;18.646;2024-02-15T09:16:32;100679.12;;;8.44;100.00
74218;BME280;62579;47.288;18.646;2024-02-15T09:18:59;100683.53;;;8.23;100.00
74218;BME280;62579;47.288;18.646;2024-02-15T09:21:26;100686.78;;;8.45;100.00
74218;BME280;62579;47.288;18.646;2024-02-15T09:23:53;100679.62;;;8.57;100.00
74218;BME280;62579;47.288;18.646;2024-02-15T09:26:19;100673.41;;;8.66;100.00
74218;BME280;62579;47.288;18.646;2024-02-15T09:28:45;100673.31;;;8.75;99.70
74218;BME280;62579;47.288;18.646;2024-02-15T09:31:14;100679.00;;;8.62;98.07
74218;BME280;62579;47.288;18.646;2024-02-15T09:33:40;100674.09;;;8.52;97.82
74218;BME280;62579;47.288;18.646;2024-02-15T09:36:05;100674.53;;;8.50;97.14
74218;BME280;62579;47.288;18.646;2024-02-15T09:38:31;100678.72;;;8.60;95.97
74218;BME280;62579;47.288;18.646;2024-02-15T09:40:56;100674.13;;;8.90;96.41
74218;BME280;62579;47.288;18.646;2024-02-15T09:43:22;100679.56;;;8.90;94.57
74218;BME280;62579;47.288;18.646;2024-02-15T09:45:51;100682.81;;;8.79;92.26
74218;BME280;62579;47.288;18.646;2024-02-15T09:48:18;100683.66;;;8.85;94.61
74218;BME280;62579;47.288;18.646;2024-02-15T09:50:44;100675.62;;;8.91;92.41
74218;BME280;62579;47.288;18.646;2024-02-15T09:53:12;100669.75;;;8.92;92.04
74218;BME280;62579;47.288;18.646;2024-02-15T09:55:40;100670.91;;;9.15;93.15
74218;BME280;62579;47.288;18.646;2024-02-15T09:58:07;100666.31;;;9.21;94.07
74218;BME280;62579;47.288;18.646;2024-02-15T10:00:34;100674.41;;;9.30;94.87
74218;BME280;62579;47.288;18.646;2024-02-15T10:03:00;100672.72;;;9.47;92.85
74218;BME280;62579;47.288;18.646;2024-02-15T10:05:28;100674.22;;;9.48;93.03
74218;BME280;62579;47.288;18.646;2024-02-15T10:07:53;100666.34;;;9.50;91.06
74218;BME280;62579;47.288;18.646;2024-02-15T10:10:25;100672.62;;;9.42;91.29
74218;BME280;62579;47.288;18.646;2024-02-15T10:12:55;100667.19;;;9.56;91.06
74218;BME280;62579;47.288;18.646;2024-02-15T10:15:31;100666.34;;;9.65;90.93
74218;BME280;62579;47.288;18.646;2024-02-15T10:17:58;100666.81;;;9.78;90.18
74218;BME280;62579;47.288;18.646;2024-02-15T10:20:24;100660.69;;;9.83;91.39
74218;BME280;62579;47.288;18.646;2024-02-15T10:23:13;100658.16;;;9.94;92.05
74218;BME280;62579;47.288;18.646;2024-02-15T10:25:42;100662.38;;;9.95;92.61
74218;BME280;62579;47.288;18.646;2024-02-15T10:28:10;100667.63;;;9.99;92.68
74218;BME280;62579;47.288;18.646;2024-02-15T10:30:36;100662.81;;;10.23;89.23
74218;BME280;62579;47.288;18.646;2024-02-15T10:33:03;100671.56;;;10.12;90.55
74218;BME280;62579;47.288;18.646;2024-02-15T10:35:29;100663.09;;;10.10;92.20
74218;BME280;62579;47.288;18.646;2024-02-15T10:40:30;100671.06;;;10.14;90.86
74218;BME280;62579;47.288;18.646;2024-02-15T10:42:58;100661.69;;;10.15;89.44
74218;BME280;62579;47.288;18.646;2024-02-15T10:45:25;100668.50;;;10.25;88.27
74218;BME280;62579;47.288;18.646;2024-02-15T10:47:50;100666.09;;;10.27;89.04
74218;BME280;62579;47.288;18.646;2024-02-15T10:50:16;100662.69;;;10.32;88.29
74218;BME280;62579;47.288;18.646;2024-02-15T10:52:54;100659.12;;;10.26;87.66
74218;BME280;62579;47.288;18.646;2024-02-15T10:55:37;100658.94;;;10.30;90.71
74218;BME280;62579;47.288;18.646;2024-02-15T10:58:07;100660.03;;;10.38;90.24
74218;BME280;62579;47.288;18.646;2024-02-15T11:00:33;100647.56;;;10.31;90.72
74218;BME280;62579;47.288;18.646;2024-02-15T11:03:04;100648.88;;;10.36;91.33
74218;BME280;62579;47.288;18.646;2024-02-15T11:05:34;100650.44;;;10.62;90.48
74218;BME280;62579;47.288;18.646;2024-02-15T11:08:02;100644.41;;;10.53;90.45
74218;BME280;62579;47.288;18.646;2024-02-15T11:10:30;100640.16;;;10.52;92.60
74218;BME280;62579;47.288;18.646;2024-02-15T11:12:56;100633.53;;;10.73;89.71
74218;BME280;62579;47.288;18.646;2024-02-15T11:18:05;100637.13;;;10.64;91.08
74218;BME280;62579;47.288;18.646;2024-02-15T11:23:00;100639.97;;;10.75;91.55
74218;BME280;62579;47.288;18.646;2024-02-15T11:25:37;100635.75;;;10.74;91.14
74218;BME280;62579;47.288;18.646;2024-02-15T11:30:51;100633.78;;;10.75;90.58
74218;BME280;62579;47.288;18.646;2024-02-15T11:33:29;100641.31;;;10.85;89.74
74218;BME280;62579;47.288;18.646;2024-02-15T11:36:12;100630.75;;;10.93;88.69
74218;BME280;62579;47.288;18.646;2024-02-15T11:38:41;100629.47;;;10.89;88.87
74218;BME280;62579;47.288;18.646;2024-02-15T11:41:08;100620.72;;;11.05;88.99
74218;BME280;62579;47.288;18.646;2024-02-15T11:43:47;100624.28;;;10.91;88.98
74218;BME280;62579;47.288;18.646;2024-02-15T11:46:25;100618.28;;;11.07;89.68
74218;BME280;62579;47.288;18.646;2024-02-15T11:48:52;100620.09;;;11.15;87.95
74218;BME280;62579;47.288;18.646;2024-02-15T11:51:33;100612.72;;;11.21;87.87
74218;BME280;62579;47.288;18.646;2024-02-15T11:54:11;100612.50;;;11.25;87.68
74218;BME280;62579;47.288;18.646;2024-02-15T11:56:58;100620.25;;;11.06;89.23
74218;BME280;62579;47.288;18.646;2024-02-15T11:59:42;100617.19;;;11.24;88.68
74218;BME280;62579;47.288;18.646;2024-02-15T12:02:19;100616.66;;;11.20;86.55
74218;BME280;62579;47.288;18.646;2024-02-15T12:05:04;100616.13;;;11.16;88.16
74218;BME280;62579;47.288;18.646;2024-02-15T12:07:48;100617.94;;;11.25;88.47
74218;BME280;62579;47.288;18.646;2024-02-15T12:10:32;100616.19;;;11.22;88.59
74218;BME280;62579;47.288;18.646;2024-02-15T12:13:20;100616.22;;;11.27;89.54
74218;BME280;62579;47.288;18.646;2024-02-15T12:16:03;100608.72;;;11.17;88.95
74218;BME280;62579;47.288;18.646;2024-02-15T12:18:48;100619.56;;;11.37;87.80
74218;BME280;62579;47.288;18.646;2024-02-15T12:21:21;100617.88;;;11.19;87.85
74218;BME280;62579;47.288;18.646;2024-02-15T12:23:48;100614.59;;;11.10;88.23
74218;BME280;62579;47.288;18.646;2024-02-15T12:26:18;100605.78;;;11.20;88.24
74218;BME280;62579;47.288;18.646;2024-02-15T12:28:44;100618.31;;;11.38;87.54
74218;BME280;62579;47.288;18.646;2024-02-15T12:31:09;100607.31;;;11.27;86.31
74218;BME280;62579;47.288;18.646;2024-02-15T12:33:35;100605.78;;;11.52;84.84
74218;BME280;62579;47.288;18.646;2024-02-15T12:36:04;100607.31;;;11.27;84.00
74218;BME280;62579;47.288;18.646;2024-02-15T12:38:34;100607.03;;;11.25;83.01
74218;BME280;62579;47.288;18.646;2024-02-15T12:41:02;100594.44;;;11.27;84.29
74218;BME280;62579;47.288;18.646;2024-02-15T12:43:28;100594.44;;;11.27;83.98
74218;BME280;62579;47.288;18.646;2024-02-15T12:45:54;100595.88;;;11.23;82.21
74218;BME280;62579;47.288;18.646;2024-02-15T12:48:22;100601.38;;;11.28;81.77
74218;BME280;62579;47.288;18.646;2024-02-15T12:50:47;100595.59;;;11.46;81.99
74218;BME280;62579;47.288;18.646;2024-02-15T12:53:12;100590.53;;;11.34;82.19
74218;BME280;62579;47.288;18.646;2024-02-15T12:55:39;100587.56;;;11.32;82.56
74218;BME280;62579;47.288;18.646;2024-02-15T12:58:09;100595.03;;;11.37;81.01
74218;BME280;62579;47.288;18.646;2024-02-15T13:00:38;100586.97;;;11.22;80.83